Time;durP1;ratioP1;P1;durP2;ratioP2;P2;SDS_P1;SDS_P2;PMS_P1;PMS_P2;Temp;Humidity;BMP_temperature;BMP_pressure;BME280_temperature;BME280_humidity;BME280_pressure;Samples;Min_cycle;Max_cycle;Signal;HPM_P1;HPM_P2
2023/10/02 00:04:24;;;;;;;2.42;0.70;;;;;;;10.98;86.51;100367.34;10571536;28;20051;-85
2023/10/02 00:09:26;;;;;;;3.47;0.77;;;;;;;11.00;86.71;100371.44;10574701;28;20059;-85
2023/10/02 00:14:35;;;;;;;2.88;0.70;;;;;;;10.91;86.61;100370.41;10575982;28;20043;-85
2023/10/02 00:19:39;;;;;;;1.35;0.73;;;;;;;10.84;87.17;100367.19;10568243;28;20078;-85
2023/10/02 00:24:41;;;;;;;1.65;0.73;;;;;;;10.78;87.21;100377.41;10573905;28;20044;-85
2023/10/02 00:29:57;;;;;;;2.20;0.75;;;;;;;10.69;87.63;100381.06;10570328;28;20422;-85
2023/10/02 00:35:02;;;;;;;1.75;0.60;;;;;;;10.65;88.03;100389.06;10569987;28;20063;-85
2023/10/02 00:40:06;;;;;;;2.92;1.02;;;;;;;10.57;88.66;100395.16;10569019;28;20036;-85
2023/10/02 00:45:09;;;;;;;2.60;0.60;;;;;;;10.55;88.21;100397.34;10566233;28;20070;-85
2023/10/02 00:50:19;;;;;;;1.20;0.70;;;;;;;10.53;89.25;100400.38;10555356;28;20407;-85
2023/10/02 00:55:35;;;;;;;2.63;0.70;;;;;;;10.56;89.15;100407.22;10572850;28;20036;-85
2023/10/02 01:00:37;;;;;;;1.50;0.93;;;;;;;10.50;89.05;100409.19;10584942;28;20043;-85
2023/10/02 01:05:47;;;;;;;3.33;0.82;;;;;;;10.47;89.50;100406.22;10552883;28;20529;-86
2023/10/02 01:10:57;;;;;;;2.70;0.70;;;;;;;10.40;89.83;100416.69;10569019;28;20043;-85
2023/10/02 01:16:04;;;;;;;4.30;1.02;;;;;;;10.34;89.49;100424.13;10519015;28;20043;-85
2023/10/02 01:21:11;;;;;;;2.63;0.90;;;;;;;10.30;89.76;100427.72;10552312;28;20040;-85
2023/10/02 01:26:16;;;;;;;3.85;0.90;;;;;;;10.36;90.62;100437.56;10570643;28;20036;-85
2023/10/02 01:31:31;;;;;;;2.63;0.88;;;;;;;10.37;90.25;100440.00;10560591;28;20036;-85
2023/10/02 01:36:33;;;;;;;3.10;1.00;;;;;;;10.40;90.65;100452.34;10540685;28;20032;-85
2023/10/02 01:41:36;;;;;;;3.85;1.15;;;;;;;10.41;90.40;100453.97;10568332;28;20503;-84
2023/10/02 01:46:49;;;;;;;3.67;1.02;;;;;;;10.43;90.36;100460.84;10568690;28;20399;-86
2023/10/02 01:51:55;;;;;;;5.30;1.30;;;;;;;10.43;90.12;100468.25;10558954;28;20040;-85
2023/10/02 01:56:59;;;;;;;6.85;1.10;;;;;;;10.44;89.65;100469.88;10530213;28;20036;-85
2023/10/02 02:02:12;;;;;;;5.22;1.13;;;;;;;10.45;89.56;100477.00;10542247;28;20063;-85
2023/10/02 02:07:20;;;;;;;4.03;1.25;;;;;;;10.52;88.60;100486.56;10556327;28;20047;-85
2023/10/02 02:12:23;;;;;;;4.05;1.35;;;;;;;10.51;89.16;100495.06;10529419;28;20041;-85
2023/10/02 02:17:26;;;;;;;1.67;0.70;;;;;;;10.54;89.08;100492.56;10558149;28;20042;-84
2023/10/02 02:22:32;;;;;;;2.15;0.88;;;;;;;10.51;89.63;100501.38;10568791;28;20047;-85
2023/10/02 02:27:34;;;;;;;4.20;0.95;;;;;;;10.49;89.26;100506.31;10558312;28;20041;-85
2023/10/02 02:32:36;;;;;;;3.30;1.17;;;;;;;10.53;89.29;100510.13;10542732;28;20048;-85
2023/10/02 02:37:41;;;;;;;3.25;1.08;;;;;;;10.49;89.12;100503.59;10555632;28;20040;-85
2023/10/02 02:42:45;;;;;;;2.50;1.20;;;;;;;10.44;89.17;100506.38;10567140;28;20047;-85
2023/10/02 02:47:51;;;;;;;3.33;1.50;;;;;;;10.37;89.05;100516.81;10566693;28;20046;-85
2023/10/02 02:53:16;;;;;;;7.15;1.60;;;;;;;10.40;88.95;100513.50;10583171;28;20062;-85
2023/10/02 02:58:17;;;;;;;4.47;1.20;;;;;;;10.41;89.28;100515.16;10558309;28;20043;-85
2023/10/02 03:03:41;;;;;;;4.80;1.42;;;;;;;10.38;88.63;100531.34;10561793;28;20676;-86
2023/10/02 03:08:45;;;;;;;4.82;1.65;;;;;;;10.34;89.16;100544.00;10550507;28;20071;-85
2023/10/02 03:13:48;;;;;;;3.78;1.42;;;;;;;10.35;89.63;100548.38;10565053;28;20036;-86
2023/10/02 03:18:54;;;;;;;5.13;1.92;;;;;;;10.32;89.31;100555.25;10566814;28;20044;-85
2023/10/02 03:23:59;;;;;;;4.63;1.38;;;;;;;10.27;89.36;100555.28;10566764;28;20047;-85
2023/10/02 03:29:16;;;;;;;6.72;2.00;;;;;;;10.20;89.87;100555.53;10558259;28;20048;-85
2023/10/02 03:34:29;;;;;;;6.40;1.35;;;;;;;10.16;90.25;100564.59;10546165;28;20406;-86
2023/10/02 03:39:59;;;;;;;4.30;1.80;;;;;;;10.05;91.24;100568.47;10548400;28;20046;-85
2023/10/02 03:45:06;;;;;;;5.85;1.75;;;;;;;9.90;92.22;100583.06;10548555;28;20036;-85
2023/10/02 03:50:12;;;;;;;4.40;1.45;;;;;;;9.76;92.39;100577.34;10563055;28;20040;-85
2023/10/02 03:55:15;;;;;;;4.57;1.60;;;;;;;9.78;92.67;100586.09;10554405;28;20036;-85
2023/10/02 04:00:19;;;;;;;4.50;1.10;;;;;;;9.67;91.88;100589.94;10556221;28;20406;-85
2023/10/02 04:10:57;;;;;;;3.20;1.15;;;;;;;9.77;90.11;100598.16;10558850;28;20036;-85
2023/10/02 04:21:22;;;;;;;4.38;1.40;;;;;;;10.01;88.12;100603.03;10576844;28;20046;-85
2023/10/02 04:26:28;;;;;;;3.00;1.27;;;;;;;10.12;87.87;100612.88;10592729;28;20032;-84
2023/10/02 04:31:34;;;;;;;5.10;1.35;;;;;;;10.23;87.23;100612.59;10601228;28;20047;-86
2023/10/02 04:36:40;;;;;;;4.88;1.42;;;;;;;10.19;87.40;100616.13;10572693;28;20042;-85
2023/10/02 04:42:09;;;;;;;5.85;1.40;;;;;;;10.16;87.15;100630.41;10568668;28;20036;-85
2023/10/02 04:47:06;;;;;;;3.72;1.48;;;;;;;10.14;87.11;100627.94;10563026;28;20063;-85
2023/10/02 04:52:08;;;;;;;7.13;1.60;;;;;;;10.22;86.67;100637.53;10570832;28;20048;-85
2023/10/02 04:57:14;;;;;;;5.03;1.38;;;;;;;10.23;85.93;100640.00;10572084;28;20426;-86
2023/10/02 05:02:21;;;;;;;3.80;1.17;;;;;;;10.18;84.42;100650.16;10562096;28;20036;-86
2023/10/02 05:07:24;;;;;;;3.83;1.07;;;;;;;10.19;83.40;100649.88;10561088;28;20036;-85
2023/10/02 05:12:28;;;;;;;2.80;1.10;;;;;;;10.34;82.51;100654.53;10570274;28;20473;-85
2023/10/02 05:17:46;;;;;;;5.35;1.13;;;;;;;10.41;81.89;100660.56;10572005;28;20043;-85
2023/10/02 05:22:58;;;;;;;7.07;1.60;;;;;;;10.44;82.52;100654.50;10570117;28;20043;-85
2023/10/02 05:28:00;;;;;;;3.55;1.10;;;;;;;10.50;81.04;100663.53;10568879;28;20031;-85
2023/10/02 05:33:07;;;;;;;2.42;1.00;;;;;;;10.39;81.67;100664.66;10570167;28;20043;-85
2023/10/02 05:38:09;;;;;;;3.30;0.88;;;;;;;10.39;81.28;100670.97;10569233;28;20027;-86
2023/10/02 05:43:17;;;;;;;2.92;1.02;;;;;;;10.34;81.99;100679.22;10565120;28;20044;-85
2023/10/02 05:53:34;;;;;;;3.40;1.23;;;;;;;10.43;81.66;100694.00;10547768;28;20045;-86
2023/10/02 05:58:41;;;;;;;3.60;1.25;;;;;;;10.47;80.82;100700.56;10563614;28;20039;-86
2023/10/02 06:03:43;;;;;;;3.88;1.15;;;;;;;10.68;80.13;100700.50;10528897;28;20047;-87
2023/10/02 06:08:49;;;;;;;2.75;1.25;;;;;;;10.68;79.72;100706.81;10564245;28;20051;-86
2023/10/02 06:13:55;;;;;;;7.35;1.40;;;;;;;10.62;79.79;100720.84;10568031;28;20040;-87
2023/10/02 06:19:01;;;;;;;4.13;1.05;;;;;;;10.58;78.42;100720.56;10558116;28;20040;-86
2023/10/02 06:24:09;;;;;;;3.20;1.15;;;;;;;10.45;78.55;100727.47;10543961;28;20129;-87
2023/10/02 06:29:16;;;;;;;3.60;1.10;;;;;;;10.38;77.90;100726.91;10533698;28;20040;-86
2023/10/02 06:34:18;;;;;;;4.60;1.10;;;;;;;10.35;78.56;100737.63;10552530;28;20514;-86
2023/10/02 06:39:26;;;;;;;3.78;1.10;;;;;;;10.37;79.20;100743.66;10567140;28;20043;-87
2023/10/02 06:44:52;;;;;;;4.97;1.10;;;;;;;10.53;78.89;100739.78;10564061;28;20530;-88
2023/10/02 06:50:03;;;;;;;3.63;1.40;;;;;;;10.38;78.74;100743.38;10527703;28;20040;-87
2023/10/02 06:55:06;;;;;;;4.18;1.33;;;;;;;10.43;79.83;100751.63;10527976;28;20524;-86
2023/10/02 07:00:10;;;;;;;2.17;1.20;;;;;;;10.54;79.61;100753.22;10576757;28;20612;-91
2023/10/02 07:05:12;;;;;;;3.80;1.58;;;;;;;10.58;79.40;100759.78;10554159;28;20071;-88
2023/10/02 07:10:14;;;;;;;6.88;1.45;;;;;;;10.81;78.37;100763.88;10546347;28;20032;-86
2023/10/02 07:15:22;;;;;;;4.30;1.50;;;;;;;10.90;77.29;100768.75;10567527;28;20050;-86
2023/10/02 07:20:24;;;;;;;;;;;;;;;10.99;77.10;100767.91;10568603;28;20521;-88
2023/10/02 07:25:27;;;;;;;3.55;1.20;;;;;;;10.96;77.85;100765.72;10566609;28;19920;-87
2023/10/02 07:30:30;;;;;;;3.28;1.70;;;;;;;11.08;76.71;100768.97;10563156;28;20036;-87
2023/10/02 07:35:36;;;;;;;5.05;1.35;;;;;;;11.32;76.16;100779.31;10562598;28;20032;-89
2023/10/02 07:40:48;;;;;;;2.40;1.13;;;;;;;11.75;74.86;100781.22;10556603;28;20043;-87
2023/10/02 07:46:06;;;;;;;5.63;1.60;;;;;;;13.46;68.71;100770.69;10576482;28;20044;-87
2023/10/02 07:51:09;;;;;;;5.60;1.23;;;;;;;15.57;61.82;100765.44;10575601;28;20051;-88
2023/10/02 07:56:14;;;;;;;3.30;1.10;;;;;;;14.70;62.65;100763.69;10557529;28;20491;-87
2023/10/02 08:01:21;;;;;;;2.60;1.30;;;;;;;14.70;62.90;100771.16;10572020;28;20052;-85
2023/10/02 08:06:33;;;;;;;4.22;1.30;;;;;;;15.79;58.91;100781.28;10570841;28;20449;-88
2023/10/02 08:11:37;;;;;;;2.55;1.20;;;;;;;16.91;56.71;100780.41;10566176;28;20043;-86
2023/10/02 08:16:58;;;;;;;3.15;1.25;;;;;;;17.21;54.26;100789.81;10574407;28;20517;-87
2023/10/02 08:22:05;;;;;;;2.40;1.25;;;;;;;15.83;58.36;100810.00;10540201;28;20108;-87
2023/10/02 08:27:07;;;;;;;3.20;1.38;;;;;;;13.79;63.90;100810.22;10568858;28;20071;-86
2023/10/02 08:32:28;;;;;;;1.95;1.20;;;;;;;13.53;65.54;100814.44;10569478;28;20036;-87
2023/10/02 08:37:31;;;;;;;2.08;0.93;;;;;;;13.06;65.76;100823.56;10574582;28;20040;-88
2023/10/02 08:42:33;;;;;;;2.90;0.90;;;;;;;12.86;66.69;100830.94;10565553;28;20519;-87
2023/10/02 08:47:35;;;;;;;4.18;1.42;;;;;;;12.85;66.76;100832.06;10548263;28;20036;-88
2023/10/02 08:52:47;;;;;;;2.58;0.90;;;;;;;12.77;66.36;100827.16;10549835;28;20475;-86
2023/10/02 08:57:54;;;;;;;2.88;1.15;;;;;;;13.19;66.12;100831.13;10556730;28;20534;-94
2023/10/02 09:03:24;;;;;;;3.70;1.23;;;;;;;13.50;64.60;100831.56;10552558;28;20047;-89
2023/10/02 09:08:26;;;;;;;3.20;1.10;;;;;;;13.73;63.60;100830.72;10531757;28;20048;-91
2023/10/02 09:13:31;;;;;;;3.30;1.52;;;;;;;13.69;63.86;100834.34;10566627;28;20036;-93
2023/10/02 09:24:00;;;;;;;4.60;1.15;;;;;;;13.17;64.72;100847.91;10584358;28;20143;-90
2023/10/02 09:29:06;;;;;;;3.80;1.45;;;;;;;13.41;64.80;100863.69;10546552;28;20042;-95
2023/10/02 09:34:11;;;;;;;3.08;1.10;;;;;;;13.17;64.35;100860.88;10546635;28;20046;-87
2023/10/02 09:39:38;;;;;;;3.70;1.17;;;;;;;13.32;64.06;100866.25;10587638;28;20087;-88
2023/10/02 09:44:47;;;;;;;1.77;0.93;;;;;;;13.11;63.49;100879.41;10587717;28;20131;-94
2023/10/02 09:50:23;;;;;;;1.77;0.90;;;;;;;13.05;63.65;100877.00;10532126;28;20115;-92
2023/10/02 09:55:41;;;;;;;2.40;0.97;;;;;;;13.18;63.84;100890.09;10525195;28;20502;-96
2023/10/02 10:01:05;;;;;;;;;;;;;;;13.28;63.66;100878.97;10550318;28;20135;-96
2023/10/02 10:06:16;;;;;;;3.30;1.35;;;;;;;12.85;64.92;100889.88;10544920;28;20379;-87
2023/10/02 10:11:21;;;;;;;2.92;1.17;;;;;;;12.80;65.34;100891.84;10572759;28;20040;-87
2023/10/02 10:16:23;;;;;;;1.80;0.90;;;;;;;13.01;64.71;100889.69;10572296;28;20043;-87
2023/10/02 10:21:57;;;;;;;4.13;1.00;;;;;;;12.94;65.15;100904.66;10571730;28;20048;-85
2023/10/02 10:27:03;;;;;;;1.13;0.70;;;;;;;13.14;64.31;100892.59;10539810;28;20046;-88
2023/10/02 10:32:23;;;;;;;1.58;0.90;;;;;;;13.12;64.43;100894.81;10539711;28;20043;-89
2023/10/02 10:37:40;;;;;;;2.28;1.02;;;;;;;13.25;63.54;100893.34;10546667;28;20056;-83
2023/10/02 10:43:15;;;;;;;3.13;0.90;;;;;;;13.14;63.91;100900.88;10540751;28;20070;-88
2023/10/02 10:48:24;;;;;;;3.85;0.90;;;;;;;13.40;64.23;100895.13;10501477;28;20064;-84
2023/10/02 10:53:29;;;;;;;1.30;0.85;;;;;;;13.28;64.09;100904.59;10532261;28;20035;-84
2023/10/02 10:58:33;;;;;;;3.80;1.15;;;;;;;13.30;64.59;100909.00;10560509;28;20056;-86
2023/10/02 11:03:38;;;;;;;2.08;1.00;;;;;;;13.23;64.38;100906.59;10550266;28;20419;-86
2023/10/02 11:08:40;;;;;;;1.10;0.68;;;;;;;13.41;64.36;100900.34;10568863;28;20514;-85
2023/10/02 11:13:58;;;;;;;2.05;0.90;;;;;;;13.76;63.82;100904.56;10552813;28;20516;-88
2023/10/02 11:19:43;;;;;;;2.65;1.02;;;;;;;13.66;63.43;100898.38;10586393;28;20048;-86
2023/10/02 11:24:37;;;;;;;2.22;1.10;;;;;;;13.43;63.28;100905.53;10568501;28;20058;-87
2023/10/02 11:29:42;;;;;;;2.03;1.20;;;;;;;12.97;65.26;100904.06;10566347;28;20032;-84
2023/10/02 11:35:03;;;;;;;3.55;1.27;;;;;;;13.52;64.25;100901.00;10550707;28;20400;-84
2023/10/02 11:40:06;;;;;;;2.97;1.63;;;;;;;13.95;63.17;100896.31;10526637;28;20048;-85
2023/10/02 11:45:09;;;;;;;2.95;1.00;;;;;;;13.89;62.78;100903.03;10560603;28;20051;-85
2023/10/02 11:50:12;;;;;;;1.38;1.02;;;;;;;13.89;63.09;100903.03;10567831;28;20040;-84
2023/10/02 11:55:19;;;;;;;4.65;1.27;;;;;;;13.77;63.63;100902.63;10566761;28;20054;-85
2023/10/02 12:00:22;;;;;;;3.20;1.10;;;;;;;13.83;62.46;100907.78;10566577;28;20051;-85
2023/10/02 12:05:26;;;;;;;4.88;1.60;;;;;;;13.68;62.90;100905.22;10541177;28;20047;-85
2023/10/02 12:10:28;;;;;;;3.55;1.15;;;;;;;13.76;63.76;100901.00;10545048;28;20036;-85
2023/10/02 12:15:30;;;;;;;2.42;0.90;;;;;;;13.75;63.32;100902.94;10523855;28;20040;-85
2023/10/02 12:20:39;;;;;;;2.90;1.70;;;;;;;13.58;64.70;100903.44;10524859;28;20422;-85
2023/10/02 12:25:47;;;;;;;3.80;0.63;;;;;;;13.48;65.01;100900.78;10536200;28;20040;-85
2023/10/02 12:30:49;;;;;;;1.75;1.10;;;;;;;13.20;66.77;100905.25;10573763;28;20036;-84
2023/10/02 12:35:54;;;;;;;2.65;1.08;;;;;;;13.05;69.06;100902.63;10573328;28;20066;-84
2023/10/02 12:40:56;;;;;;;5.25;1.13;;;;;;;13.20;70.09;100902.50;10565514;28;20056;-88
2023/10/02 12:46:01;;;;;;;4.10;1.40;;;;;;;13.39;69.88;100905.31;10563384;28;20035;-81
2023/10/02 12:51:05;;;;;;;3.67;1.10;;;;;;;13.72;69.15;100909.06;10559827;28;20040;-82
2023/10/02 12:56:07;;;;;;;4.38;1.02;;;;;;;13.53;69.82;100911.75;10565496;28;20039;-84
2023/10/02 13:01:13;;;;;;;2.88;1.17;;;;;;;13.44;68.91;100913.53;10556242;28;20040;-85
2023/10/02 13:06:15;;;;;;;4.07;1.13;;;;;;;13.18;70.52;100920.41;10519598;28;20189;-86
2023/10/02 13:11:21;;;;;;;3.33;0.90;;;;;;;13.27;70.63;100913.16;10539564;28;20058;-84
2023/10/02 13:16:26;;;;;;;1.65;0.80;;;;;;;13.19;70.45;100916.53;10547377;28;20044;-86
2023/10/02 13:21:28;;;;;;;2.00;1.00;;;;;;;13.35;70.00;100914.44;10566945;28;20036;-88
2023/10/02 13:26:30;;;;;;;1.80;0.93;;;;;;;13.30;70.63;100912.56;10568287;28;20070;-87
2023/10/02 13:31:33;;;;;;;2.45;1.10;;;;;;;13.02;71.34;100916.16;10532923;28;20047;-89
2023/10/02 13:36:37;;;;;;;2.20;1.05;;;;;;;12.90;70.56;100924.81;10539280;28;20041;-86
2023/10/02 13:41:39;;;;;;;2.00;0.90;;;;;;;12.84;72.29;100914.94;10562701;28;20406;-85
2023/10/02 13:46:42;;;;;;;3.17;1.00;;;;;;;12.61;74.57;100922.84;10560854;28;20048;-90
2023/10/02 13:51:44;;;;;;;5.22;1.30;;;;;;;12.76;75.06;100926.59;10551211;28;20040;-87
2023/10/02 13:56:47;;;;;;;3.30;1.00;;;;;;;12.97;74.76;100930.78;10547600;28;20044;-87
2023/10/02 14:01:49;;;;;;;2.17;0.82;;;;;;;13.06;74.37;100923.56;10557769;28;20055;-92
2023/10/02 14:06:52;;;;;;;4.22;1.10;;;;;;;12.88;74.66;100921.53;10541265;28;21248;-86
2023/10/02 14:11:54;;;;;;;3.72;1.10;;;;;;;12.74;74.26;100932.38;10550487;28;20040;-92
2023/10/02 14:16:58;;;;;;;2.53;1.10;;;;;;;12.53;75.05;100919.91;10568698;28;20048;-86
2023/10/02 14:22:00;;;;;;;6.47;1.65;;;;;;;12.57;75.54;100915.47;10568130;28;20487;-82
2023/10/02 14:27:02;;;;;;;4.22;1.40;;;;;;;12.55;76.00;100914.94;10569051;28;20040;-83
2023/10/02 14:32:05;;;;;;;2.63;1.00;;;;;;;12.61;75.64;100916.50;10557451;28;20028;-85
2023/10/02 14:37:09;;;;;;;1.58;0.80;;;;;;;12.58;76.12;100917.91;10581567;28;20039;-85
2023/10/02 14:42:13;;;;;;;4.07;1.20;;;;;;;12.58;75.66;100917.09;10540403;28;20047;-84
2023/10/02 14:47:16;;;;;;;5.45;1.52;;;;;;;12.49;76.23;100919.63;10564073;28;20048;-83
2023/10/02 14:52:19;;;;;;;6.10;1.38;;;;;;;12.43;76.43;100911.72;10569478;28;20058;-86
2023/10/02 14:57:26;;;;;;;4.32;1.60;;;;;;;12.31;76.84;100917.56;10570255;28;20040;-85
2023/10/02 15:02:29;;;;;;;3.43;1.20;;;;;;;12.31;77.15;100918.38;10550213;28;20422;-83
2023/10/02 15:13:25;;;;;;;3.10;1.52;;;;;;;12.16;77.87;100914.94;10583749;28;20134;-85
2023/10/02 15:18:28;;;;;;;2.15;1.15;;;;;;;12.10;78.52;100922.38;10565660;28;20036;-85
2023/10/02 15:23:32;;;;;;;4.15;1.80;;;;;;;12.13;78.71;100913.56;10567181;28;20047;-83
2023/10/02 15:28:39;;;;;;;2.38;1.20;;;;;;;12.06;78.18;100922.13;10537895;28;20406;-85
2023/10/02 15:33:42;;;;;;;3.50;1.23;;;;;;;11.98;79.42;100916.44;10584235;28;20047;-82
2023/10/02 15:38:48;;;;;;;3.63;1.35;;;;;;;11.96;79.40;100929.59;10549673;28;20040;-82
2023/10/02 15:43:51;;;;;;;4.55;1.42;;;;;;;11.99;79.60;100926.31;10545597;28;20039;-81
2023/10/02 15:48:54;;;;;;;5.63;1.63;;;;;;;11.88;79.91;100930.22;10567318;28;20040;-82
2023/10/02 15:53:57;;;;;;;4.13;1.70;;;;;;;11.95;79.55;100928.78;10557817;28;20032;-83
2023/10/02 15:58:59;;;;;;;3.85;1.40;;;;;;;11.82;79.75;100928.59;10555162;28;20044;-83
2023/10/02 16:04:02;;;;;;;5.25;1.38;;;;;;;11.76;80.91;100925.81;10561563;28;20040;-84
2023/10/02 16:09:04;;;;;;;4.47;1.30;;;;;;;11.67;79.99;100935.78;10564739;28;20040;-82
2023/10/02 16:14:06;;;;;;;2.78;1.20;;;;;;;11.58;81.17;100933.88;10557456;28;20502;-86
2023/10/02 16:19:09;;;;;;;2.90;1.20;;;;;;;11.67;80.89;100934.97;10581671;28;20039;-83
2023/10/02 16:24:11;;;;;;;4.38;1.27;;;;;;;11.76;80.39;100931.31;10561040;28;20041;-84
2023/10/02 16:29:13;;;;;;;4.53;1.40;;;;;;;11.83;80.48;100933.00;10530699;28;20040;-84
2023/10/02 16:34:18;;;;;;;3.35;1.30;;;;;;;11.73;80.97;100934.66;10532757;28;20567;-83
2023/10/02 16:39:21;;;;;;;4.68;1.40;;;;;;;11.70;80.48;100934.38;10544133;28;20036;-84
2023/10/02 16:44:24;;;;;;;2.75;0.90;;;;;;;11.69;80.34;100935.50;10573344;28;20036;-84
2023/10/02 16:49:26;;;;;;;2.13;1.17;;;;;;;11.65;80.16;100932.50;10563432;28;20128;-85
2023/10/02 16:54:28;;;;;;;4.82;1.40;;;;;;;11.53;80.84;100934.72;10511476;28;20036;-84
2023/10/02 16:59:31;;;;;;;2.28;1.23;;;;;;;11.42;81.22;100933.94;10556665;28;20036;-86
2023/10/02 17:04:33;;;;;;;4.80;1.33;;;;;;;11.43;81.47;100929.25;10545384;28;20051;-85
2023/10/02 17:09:36;;;;;;;3.67;1.77;;;;;;;11.34;82.05;100939.19;10566965;28;20035;-85
2023/10/02 17:14:39;;;;;;;3.97;1.58;;;;;;;11.41;83.29;100931.47;10567658;28;20040;-85
2023/10/02 17:19:41;;;;;;;3.40;1.45;;;;;;;11.38;82.99;100926.53;10567188;28;20036;-84
2023/10/02 17:24:43;;;;;;;3.05;1.40;;;;;;;11.34;83.65;100931.78;10567400;28;20051;-87
2023/10/02 17:29:45;;;;;;;3.22;1.50;;;;;;;11.28;84.24;100934.78;10558631;28;20058;-87
2023/10/02 17:34:49;;;;;;;4.93;1.60;;;;;;;11.27;84.81;100935.91;10557071;28;20044;-89
2023/10/02 17:39:52;;;;;;;2.70;1.63;;;;;;;11.36;84.87;100934.22;10548808;28;20301;-87
2023/10/02 17:44:55;;;;;;;4.43;1.90;;;;;;;11.31;84.88;100940.56;10592583;28;20074;-87
2023/10/02 17:49:58;;;;;;;2.88;1.63;;;;;;;11.24;84.82;100941.94;10580300;28;20419;-91
2023/10/02 17:55:01;;;;;;;3.63;1.70;;;;;;;11.05;85.55;100934.28;10570186;28;20032;-90
2023/10/02 18:00:04;;;;;;;3.00;1.67;;;;;;;11.03;84.83;100928.25;10535533;28;20036;-87
2023/10/02 18:05:14;;;;;;;4.28;1.48;;;;;;;10.77;84.62;100929.41;10569896;28;20074;-88
2023/10/02 18:10:18;;;;;;;3.50;1.65;;;;;;;10.74;84.71;100929.94;10551956;28;20043;-87
2023/10/02 18:15:20;;;;;;;4.20;1.55;;;;;;;10.68;84.04;100929.13;10551756;28;20032;-89
2023/10/02 18:20:22;;;;;;;2.75;1.33;;;;;;;10.62;84.11;100934.88;10537965;28;20263;-88
2023/10/02 18:25:25;;;;;;;4.50;1.63;;;;;;;10.68;83.98;100931.03;10529884;28;20426;-90
2023/10/02 18:30:29;;;;;;;2.05;1.15;;;;;;;10.65;84.20;100937.91;10528414;28;20429;-92
2023/10/02 18:35:34;;;;;;;4.00;1.70;;;;;;;10.77;83.58;100921.16;10553025;28;20039;-90
2023/10/02 18:40:36;;;;;;;3.42;1.83;;;;;;;10.79;82.72;100929.94;10545174;28;20541;-89
2023/10/02 18:45:38;;;;;;;2.70;1.48;;;;;;;10.76;82.72;100927.72;10538049;28;20503;-90
2023/10/02 18:50:41;;;;;;;6.53;2.55;;;;;;;10.69;82.04;100922.53;10563708;28;20522;-84
2023/10/02 18:55:46;;;;;;;2.15;1.38;;;;;;;10.67;82.67;100916.50;10565802;28;20062;-84
2023/10/02 19:00:48;;;;;;;4.78;2.25;;;;;;;10.63;82.24;100909.91;10545082;28;20048;-83
2023/10/02 19:05:51;;;;;;;3.45;1.65;;;;;;;10.67;82.39;100904.69;10562162;28;20190;-91
2023/10/02 19:10:55;;;;;;;4.53;1.90;;;;;;;10.67;82.62;100905.50;10521505;28;20048;-85
2023/10/02 19:15:57;;;;;;;4.07;2.10;;;;;;;10.70;81.20;100901.38;10557797;28;20426;-86
2023/10/02 19:20:59;;;;;;;5.18;2.10;;;;;;;10.51;82.22;100895.63;10555457;28;20406;-87
2023/10/02 19:26:02;;;;;;;2.63;1.67;;;;;;;10.45;82.32;100892.06;10567147;28;20039;-83
2023/10/02 19:31:08;;;;;;;6.85;2.10;;;;;;;10.64;82.24;100883.28;10577499;28;20059;-92
2023/10/02 19:36:10;;;;;;;4.95;2.42;;;;;;;10.58;81.61;100883.28;10543818;28;20044;-90
2023/10/02 19:41:19;;;;;;;3.60;2.00;;;;;;;10.62;80.88;100872.59;10487282;22;20070;-50
2023/10/02 19:46:22;;;;;;;7.22;2.55;;;;;;;10.55;80.75;100875.59;10429254;28;20505;-50
2023/10/02 19:51:24;;;;;;;5.55;2.60;;;;;;;10.69;80.43;100862.16;10426476;28;20420;-50
2023/10/02 19:56:26;;;;;;;5.30;2.60;;;;;;;10.81;79.78;100859.94;10437095;28;20370;-50
2023/10/02 20:01:28;;;;;;;8.65;2.88;;;;;;;10.74;79.83;100850.31;10433579;28;20049;-47
2023/10/02 20:06:31;;;;;;;9.15;3.33;;;;;;;10.61;79.73;100851.75;10432541;28;20447;-47
2023/10/02 20:11:33;;;;;;;7.95;3.58;;;;;;;10.54;79.70;100845.69;10431712;28;20052;-45
2023/10/02 20:16:43;;;;;;;8.63;3.05;;;;;;;10.31;80.29;100846.25;10463888;28;20047;-46
2023/10/02 20:21:45;;;;;;;7.80;2.88;;;;;;;10.28;80.63;100839.41;10429727;28;20524;-46
2023/10/02 20:26:48;;;;;;;5.78;2.42;;;;;;;10.47;79.93;100843.25;10428410;28;20038;-45
2023/10/02 20:31:50;;;;;;;5.70;2.85;;;;;;;10.60;80.27;100833.63;10429731;28;20056;-45
2023/10/02 20:36:52;;;;;;;7.13;2.30;;;;;;;10.60;80.47;100825.41;10424140;28;20045;-43
2023/10/02 20:41:55;;;;;;;7.32;2.47;;;;;;;10.66;79.95;100820.72;10405317;28;20049;-44
2023/10/02 20:46:57;;;;;;;4.60;2.50;;;;;;;10.55;79.47;100817.16;10425107;22;20041;-37
2023/10/02 20:51:59;;;;;;;5.85;2.40;;;;;;;10.33;80.43;100811.97;10445545;28;20511;-37
2023/10/02 20:57:03;;;;;;;4.47;2.42;;;;;;;10.31;80.56;100808.69;10446127;28;20033;-37
2023/10/02 21:02:05;;;;;;;3.85;1.98;;;;;;;10.24;81.71;100794.44;10446829;22;20428;-47
2023/10/02 21:07:08;;;;;;;2.90;1.77;;;;;;;10.18;81.11;100784.50;10443486;28;20038;-43
2023/10/02 21:12:10;;;;;;;3.88;2.22;;;;;;;10.15;81.31;100790.56;10441072;28;20068;-43
2023/10/02 21:17:13;;;;;;;3.55;2.20;;;;;;;10.18;81.97;100781.78;10457359;22;20053;-34
2023/10/02 21:22:15;;;;;;;4.30;2.65;;;;;;;10.19;82.05;100777.94;10437155;28;20041;-35
2023/10/02 21:27:17;;;;;;;3.60;2.53;;;;;;;10.21;81.36;100764.78;10439545;28;20041;-34
2023/10/02 21:32:19;;;;;;;3.33;2.28;;;;;;;10.34;81.99;100753.28;10446334;22;20053;-35
2023/10/02 21:37:22;;;;;;;4.90;2.30;;;;;;;10.34;81.73;100741.47;10438844;28;20068;-36
2023/10/02 21:42:24;;;;;;;3.95;2.00;;;;;;;10.35;82.30;100732.97;10434118;28;20579;-35
2023/10/02 21:47:26;;;;;;;5.60;2.35;;;;;;;10.23;82.33;100724.19;10439920;23;20551;-43
2023/10/02 21:52:29;;;;;;;6.25;2.83;;;;;;;10.47;82.69;100724.44;10380326;28;20096;-44
2023/10/02 21:57:31;;;;;;;4.38;2.10;;;;;;;10.53;82.24;100717.84;10386429;28;20045;-43
2023/10/02 22:02:33;;;;;;;5.20;2.30;;;;;;;10.63;82.24;100722.47;10416756;22;20049;-41
2023/10/02 22:07:37;;;;;;;3.53;1.88;;;;;;;10.64;83.48;100713.16;10441408;28;20451;-41
2023/10/02 22:12:39;;;;;;;3.60;1.80;;;;;;;10.60;83.80;100707.41;10423687;28;20050;-41
2023/10/02 22:17:45;;;;;;;3.92;1.55;;;;;;;10.68;84.04;100695.00;10444125;22;20046;-43
2023/10/02 22:22:49;;;;;;;5.57;1.70;;;;;;;10.62;84.89;100698.88;10400820;28;20044;-44
2023/10/02 22:27:53;;;;;;;3.92;1.85;;;;;;;10.60;85.80;100695.59;10383048;28;20637;-44
2023/10/02 22:32:55;;;;;;;5.80;2.20;;;;;;;10.52;85.93;100697.00;10427493;22;20110;-45
2023/10/02 22:38:01;;;;;;;4.53;2.08;;;;;;;10.48;86.03;100694.00;10461060;28;20090;-45
2023/10/02 22:43:04;;;;;;;2.72;1.65;;;;;;;10.43;85.97;100690.44;10433534;28;20516;-47
2023/10/02 22:48:09;;;;;;;3.78;1.67;;;;;;;10.38;86.61;100682.22;10442327;28;20041;-48
2023/10/02 22:53:12;;;;;;;4.65;2.25;;;;;;;10.39;86.47;100668.22;10442939;28;20049;-48
2023/10/02 22:58:15;;;;;;;5.32;2.05;;;;;;;10.38;86.94;100663.81;10437036;28;20048;-46
2023/10/02 23:03:18;;;;;;;3.40;2.20;;;;;;;10.40;86.37;100644.34;10429811;28;20416;-46
2023/10/02 23:08:21;;;;;;;5.65;2.33;;;;;;;10.40;87.40;100642.41;10439337;28;20033;-44
2023/10/02 23:13:24;;;;;;;4.80;2.35;;;;;;;10.43;87.31;100636.41;10434965;28;20416;-44
2023/10/02 23:18:26;;;;;;;3.50;2.10;;;;;;;10.36;87.34;100632.28;10440735;28;20033;-46
2023/10/02 23:23:29;;;;;;;5.32;2.13;;;;;;;10.26;88.06;100619.47;10441053;28;20042;-48
2023/10/02 23:28:31;;;;;;;4.95;2.05;;;;;;;10.13;87.87;100614.53;10440594;28;20504;-45
2023/10/02 23:33:35;;;;;;;6.50;2.10;;;;;;;10.11;88.56;100603.03;10441056;28;20057;-46
2023/10/02 23:38:37;;;;;;;4.18;1.90;;;;;;;10.20;87.98;100598.59;10440466;28;20040;-44
2023/10/02 23:43:40;;;;;;;3.55;1.85;;;;;;;10.08;89.29;100590.69;10425197;28;20160;-46
2023/10/02 23:48:43;;;;;;;3.80;1.95;;;;;;;10.15;89.20;100580.25;10438809;28;20052;-47
2023/10/02 23:53:45;;;;;;;4.95;2.10;;;;;;;10.06;89.77;100575.59;10439336;28;20423;-44